Aeroporto :
LOGIN :

Iscrizione | Disclaimer

   EN    FR    IT 

 










Sommario :    VFR   VFR Marginale   IFR   IFR Intensivo   IFR Molto Intensivo
Visibilità : 
Base nubi : 
>= 8 km
>= 3000ft
5 / 8 km
1000 / 3000 ft
1500m / 5 km
500 / 1000 ft
800 / 1500m
200 / 500 ft
< 800m
< 200 ft
Simboli :   Temporali  Nebbia  Neve Forte  Precipitazioni Forti  Vento > 20 kt
SIGMETs :   Varie  Temporali  Ghiacco  Turbolenza  Onda orograficha  Ceneri Vulcaniche







- Altitudine del aeroporto : 1300 ft
- Codice IATA : LIG
- Carte del aeroporto


LFBL - Limoges

ULTIMO METAR :
  • 210630Z AUTO 05008KT CAVOK 16/09 Q1026 NOSIG

METARs OBSOLETI :
  • 210600Z AUTO 04008KT CAVOK 15/08 Q1025 NOSIG
  • 210530Z AUTO 04008KT CAVOK 14/08 Q1025 NOSIG
  • 210500Z AUTO 03007KT CAVOK 14/08 Q1025 NOSIG
  • 210430Z AUTO 04007KT CAVOK 13/08 Q1025 NOSIG
  • 210400Z AUTO 04003KT CAVOK 12/07 Q1025 NOSIG

TAF TAF LFBL
Valido dal 21 a 06 ore il 22 a 06 ore UTC


210500Z 2106/2206 05007KT CAVOK
TEMPO 2106/2108 VRB02KT
TEMPO 2200/2206 VRB02KT
ATIS : +33 5 55 48 40 37
Nessun NOTAM noto per questo aeroporto.



MetMap, La meteo Aeronautica in un colpo d'occhio ! - Copyright ORBIFLY Dicembre 2007 - Disclaimer

ORBIFLY MET'MAP TEAM :

Programmazione e sviluppo : Alexandra Zaïnal
Concezione e sviluppo : Baudouin d'Aumeries
Co-Programmazione e sviluppo : Marc-Olivier Méhu
Supporto tecnico e logistico : Manuel Goepfert
Aiuto per la traduzione : Arnaldo La Scala

Contatto : metmap@orbifly.com




FONTI E CREDITI :

   NOAA